Time;durP1;ratioP1;P1;durP2;ratioP2;P2;SDS_P1;SDS_P2;PMS_P1;PMS_P2;Temp;Humidity;BMP_temperature;BMP_pressure;BME280_temperature;BME280_humidity;BME280_pressure;Samples;Min_cycle;Max_cycle;Signal;HPM_P1;HPM_P2
2022/08/24 00:02:05;;;;;;;5.90;4.18;;;17.30;91.50;;;;;;5072289;28;20226;-65
2022/08/24 00:04:34;;;;;;;5.80;4.40;;;17.30;91.60;;;;;;5072387;28;20190;-65
2022/08/24 00:07:04;;;;;;;5.65;3.90;;;17.20;91.50;;;;;;5070117;28;20203;-64
2022/08/24 00:09:47;;;;;;;6.28;3.83;;;17.20;91.70;;;;;;5072224;28;20218;-64
2022/08/24 00:12:18;;;;;;;7.97;4.07;;;17.20;91.90;;;;;;5072221;28;20221;-65
2022/08/24 00:14:47;;;;;;;4.63;3.45;;;17.20;91.90;;;;;;5070431;28;20207;-63
2022/08/24 00:17:19;;;;;;;4.70;3.40;;;17.20;92.00;;;;;;5072097;28;20206;-65
2022/08/24 00:19:47;;;;;;;4.22;3.63;;;17.10;91.90;;;;;;5072219;28;20186;-65
2022/08/24 00:22:16;;;;;;;3.95;3.55;;;17.10;92.00;;;;;;5072089;28;20210;-64
2022/08/24 00:24:45;;;;;;;4.65;3.22;;;17.10;92.30;;;;;;5070365;28;20672;-65
2022/08/24 00:27:14;;;;;;;4.47;3.45;;;17.10;92.10;;;;;;5070657;28;20203;-64
2022/08/24 00:29:43;;;;;;;4.97;3.30;;;17.00;92.00;;;;;;5070650;28;20652;-63
2022/08/24 00:32:11;;;;;;;5.43;3.60;;;17.10;92.10;;;;;;5072003;28;20237;-64
2022/08/24 00:34:42;;;;;;;4.78;3.58;;;17.00;92.10;;;;;;5067907;28;20196;-64
2022/08/24 00:37:27;;;;;;;3.47;3.17;;;17.00;92.20;;;;;;5072021;28;20183;-63
2022/08/24 00:39:56;;;;;;;5.30;3.58;;;16.90;92.20;;;;;;5066719;28;20200;-65
2022/08/24 00:42:25;;;;;;;4.57;3.25;;;16.90;92.30;;;;;;5051946;28;20196;-64
2022/08/24 00:44:54;;;;;;;7.20;3.58;;;16.80;92.30;;;;;;5050716;28;20211;-65
2022/08/24 00:47:27;;;;;;;5.63;3.58;;;16.70;92.40;;;;;;5062944;28;20200;-63
2022/08/24 00:50:01;;;;;;;4.95;3.58;;;16.70;92.50;;;;;;5067795;28;20223;-64
2022/08/24 00:52:34;;;;;;;4.88;3.30;;;16.70;92.60;;;;;;5071975;28;20187;-66
2022/08/24 00:55:09;;;;;;;4.78;3.33;;;16.70;92.70;;;;;;5074494;28;20546;-65
2022/08/24 00:57:41;;;;;;;5.22;3.38;;;16.60;92.70;;;;;;5075781;28;20190;-65
2022/08/24 01:00:14;;;;;;;5.35;3.30;;;16.60;92.80;;;;;;5071869;28;20217;-65
2022/08/24 01:02:47;;;;;;;4.63;3.60;;;16.50;92.80;;;;;;5074515;28;20183;-64
2022/08/24 01:05:18;;;;;;;6.13;3.60;;;16.50;92.90;;;;;;5075524;28;20281;-66
2022/08/24 01:07:49;;;;;;;4.10;3.08;;;16.40;93.00;;;;;;5075549;28;20208;-65
2022/08/24 01:10:23;;;;;;;4.10;3.28;;;16.40;93.00;;;;;;5070615;28;20234;-66
2022/08/24 01:12:57;;;;;;;4.78;3.55;;;16.40;93.10;;;;;;5069944;28;20187;-64
2022/08/24 01:15:29;;;;;;;6.18;3.35;;;16.40;93.30;;;;;;5054263;28;20198;-65
2022/08/24 01:20:51;;;;;;;4.03;3.10;;;16.30;93.40;;;;;;5069933;28;20246;-65
2022/08/24 01:23:35;;;;;;;5.00;3.58;;;16.30;93.40;;;;;;5074142;28;20183;-65
2022/08/24 01:26:05;;;;;;;4.25;3.40;;;16.20;93.50;;;;;;5073894;28;20544;-65
2022/08/24 01:28:35;;;;;;;5.03;3.70;;;16.20;93.50;;;;;;5073416;28;20190;-65
2022/08/24 01:31:04;;;;;;;9.10;3.30;;;16.20;93.60;;;;;;5073761;28;20727;-64
2022/08/24 01:33:33;;;;;;;4.95;3.13;;;16.20;93.70;;;;;;5074342;28;20214;-65
2022/08/24 01:36:06;;;;;;;4.63;3.15;;;16.10;93.70;;;;;;5074967;28;20196;-65
2022/08/24 01:38:37;;;;;;;4.22;2.78;;;16.10;93.80;;;;;;5068213;28;20195;-64
2022/08/24 01:41:06;;;;;;;6.13;3.70;;;16.10;93.90;;;;;;5073760;28;20218;-66
2022/08/24 01:43:36;;;;;;;7.57;3.58;;;16.00;94.00;;;;;;5072188;28;20202;-65
2022/08/24 01:46:07;;;;;;;3.45;3.10;;;16.00;94.10;;;;;;5063975;28;20571;-65
2022/08/24 01:48:36;;;;;;;4.47;3.63;;;16.00;94.20;;;;;;5052861;28;20677;-65
2022/08/24 01:51:06;;;;;;;3.42;3.13;;;16.00;94.20;;;;;;5052626;28;20702;-64
2022/08/24 01:53:36;;;;;;;7.03;3.50;;;15.90;94.20;;;;;;5052885;28;20219;-64
2022/08/24 01:56:06;;;;;;;3.95;3.55;;;15.90;94.20;;;;;;5060028;28;20207;-65
2022/08/24 01:58:35;;;;;;;4.97;3.22;;;15.70;94.50;;;;;;5070670;28;20206;-66
2022/08/24 02:01:05;;;;;;;4.03;3.38;;;15.70;94.70;;;;;;5072651;28;20238;-65
2022/08/24 02:03:34;;;;;;;4.40;3.53;;;15.70;94.90;;;;;;5072959;28;20218;-65
2022/08/24 02:06:04;;;;;;;5.25;3.80;;;15.70;95.10;;;;;;5071689;28;20207;-65
2022/08/24 02:08:34;;;;;;;4.22;3.28;;;15.70;95.10;;;;;;5072652;28;20662;-66
2022/08/24 02:11:07;;;;;;;4.63;3.55;;;15.70;95.10;;;;;;5072456;28;20724;-65
2022/08/24 02:13:36;;;;;;;5.90;3.70;;;15.60;95.10;;;;;;5071242;28;20566;-64
2022/08/24 02:16:05;;;;;;;3.63;3.33;;;15.60;95.20;;;;;;5072671;28;20207;-66
2022/08/24 02:18:39;;;;;;;5.05;3.55;;;15.60;95.20;;;;;;5072186;28;20218;-65
2022/08/24 02:21:10;;;;;;;3.92;3.53;;;15.60;95.30;;;;;;5072200;28;20230;-66
2022/08/24 02:23:40;;;;;;;3.83;3.47;;;15.50;95.30;;;;;;5070628;28;20199;-66
2022/08/24 02:26:11;;;;;;;5.03;3.90;;;15.50;95.30;;;;;;5057767;28;20211;-64
2022/08/24 02:28:40;;;;;;;4.93;3.28;;;15.50;95.50;;;;;;5054050;28;20215;-66
2022/08/24 02:31:11;;;;;;;5.18;3.50;;;15.50;95.50;;;;;;5072795;28;20728;-64
2022/08/24 02:33:41;;;;;;;3.78;2.92;;;15.50;95.60;;;;;;5071747;28;20203;-63
2022/08/24 02:36:11;;;;;;;4.95;3.47;;;15.50;95.70;;;;;;5068511;28;20673;-65
2022/08/24 02:38:54;;;;;;;5.05;3.35;;;15.50;95.80;;;;;;5070218;28;20195;-66
2022/08/24 02:41:26;;;;;;;4.13;3.58;;;15.40;95.90;;;;;;5073251;28;20227;-65
2022/08/24 02:43:56;;;;;;;4.25;3.20;;;15.40;95.90;;;;;;5070253;28;20202;-64
2022/08/24 02:46:27;;;;;;;6.82;3.65;;;15.40;96.00;;;;;;5066170;28;20196;-65
2022/08/24 02:48:57;;;;;;;4.43;3.47;;;15.40;96.00;;;;;;5051622;28;20200;-65
2022/08/24 02:51:46;;;;;;;5.93;3.53;;;15.30;96.00;;;;;;5051719;28;20244;-65
2022/08/24 02:54:18;;;;;;;5.90;3.38;;;15.30;96.10;;;;;;5053937;28;20206;-64
2022/08/24 02:56:51;;;;;;;4.40;3.20;;;15.30;96.10;;;;;;5068442;28;20207;-64
2022/08/24 02:59:21;;;;;;;4.80;3.65;;;15.30;96.20;;;;;;5068636;28;20573;-65
2022/08/24 03:01:51;;;;;;;4.53;3.80;;;15.20;96.20;;;;;;5065932;28;20240;-63
2022/08/24 03:04:21;;;;;;;5.30;3.35;;;15.20;96.20;;;;;;5059054;28;20203;-64
2022/08/24 03:06:50;;;;;;;4.75;3.67;;;15.20;96.30;;;;;;5052818;28;20207;-64
2022/08/24 03:09:19;;;;;;;6.30;3.33;;;15.10;96.40;;;;;;5052827;28;20581;-65
2022/08/24 03:11:52;;;;;;;3.78;3.25;;;15.20;96.50;;;;;;5061144;28;20227;-65
2022/08/24 03:14:21;;;;;;;6.32;3.88;;;15.10;96.50;;;;;;5060764;28;20216;-65
2022/08/24 03:16:50;;;;;;;6.05;3.40;;;15.00;96.60;;;;;;5059206;28;20223;-65
2022/08/24 03:19:19;;;;;;;4.63;3.80;;;15.00;96.80;;;;;;5080315;28;20222;-65
2022/08/24 03:21:48;;;;;;;5.57;3.38;;;15.00;97.00;;;;;;5070777;28;20598;-64
2022/08/24 03:24:17;;;;;;;7.60;3.50;;;14.90;97.00;;;;;;5071325;28;20211;-67
2022/08/24 03:26:46;;;;;;;8.27;3.95;;;14.90;97.20;;;;;;5071046;28;20198;-65
2022/08/24 03:29:16;;;;;;;8.23;4.10;;;14.90;98.20;;;;;;5054478;28;20207;-65
2022/08/24 03:31:47;;;;;;;6.60;3.92;;;14.90;97.60;;;;;;5071220;28;20223;-65
2022/08/24 03:34:16;;;;;;;5.05;3.92;;;14.80;97.60;;;;;;5064791;28;20195;-65
2022/08/24 03:36:46;;;;;;;5.63;3.22;;;14.80;97.70;;;;;;5070814;28;20556;-66
2022/08/24 03:39:17;;;;;;;4.78;3.65;;;14.80;97.80;;;;;;5069670;28;20207;-65
2022/08/24 03:41:48;;;;;;;4.47;3.47;;;14.80;97.80;;;;;;5070626;28;20226;-66
2022/08/24 03:44:18;;;;;;;4.22;3.58;;;14.80;98.10;;;;;;5054591;28;20224;-66
2022/08/24 03:46:51;;;;;;;3.40;3.10;;;14.80;97.80;;;;;;5058236;28;20266;-65
2022/08/24 03:49:21;;;;;;;5.25;3.20;;;14.80;97.80;;;;;;5069291;28;20210;-64
2022/08/24 03:51:50;;;;;;;3.97;3.00;;;14.70;97.90;;;;;;5070299;28;20235;-65
2022/08/24 03:54:22;;;;;;;4.57;3.28;;;14.70;97.90;;;;;;5071405;28;20183;-64
2022/08/24 03:56:52;;;;;;;3.60;3.25;;;14.70;98.00;;;;;;5071344;28;20195;-65
2022/08/24 03:59:22;;;;;;;4.47;3.20;;;14.60;98.00;;;;;;5056238;28;20567;-65
2022/08/24 04:01:54;;;;;;;4.55;3.33;;;14.60;98.00;;;;;;5052098;28;20244;-64
2022/08/24 04:04:25;;;;;;;3.67;3.20;;;14.60;98.10;;;;;;5062577;28;20676;-65
2022/08/24 04:06:53;;;;;;;5.63;3.47;;;14.50;98.10;;;;;;5059150;28;20207;-65
2022/08/24 04:09:23;;;;;;;4.28;3.35;;;14.50;98.20;;;;;;5064971;28;20179;-65
2022/08/24 04:11:52;;;;;;;5.60;3.63;;;14.50;98.30;;;;;;5052878;28;20693;-66
2022/08/24 04:14:25;;;;;;;4.10;3.70;;;14.50;98.30;;;;;;5061791;28;20651;-64
2022/08/24 04:17:01;;;;;;;4.45;3.60;;;14.50;98.40;;;;;;5071096;28;20706;-65
2022/08/24 04:19:35;;;;;;;5.53;4.28;;;14.40;98.50;;;;;;5070530;28;20195;-64
2022/08/24 04:22:04;;;;;;;5.13;4.00;;;14.40;98.60;;;;;;5066225;28;20621;-65
2022/08/24 04:24:33;;;;;;;6.50;5.03;;;14.40;98.80;;;;;;5066737;28;20569;-64
2022/08/24 04:27:02;;;;;;;6.78;4.25;;;14.40;99.00;;;;;;5072201;28;20210;-65
2022/08/24 04:29:34;;;;;;;7.10;4.20;;;14.30;99.10;;;;;;5057381;28;20206;-64
2022/08/24 04:32:03;;;;;;;4.10;3.70;;;14.30;99.00;;;;;;5065175;28;20223;-66
2022/08/24 04:34:33;;;;;;;4.13;3.72;;;14.30;99.10;;;;;;5076194;28;20657;-64
2022/08/24 04:37:01;;;;;;;5.88;3.50;;;14.20;99.20;;;;;;5074284;28;20683;-64
2022/08/24 04:39:32;;;;;;;4.90;3.70;;;14.20;99.40;;;;;;5068953;28;20191;-65
2022/08/24 04:42:08;;;;;;;4.30;3.90;;;14.20;99.50;;;;;;5075979;28;20589;-65
2022/08/24 04:44:41;;;;;;;6.43;3.90;;;14.30;99.50;;;;;;5068852;28;20696;-64
2022/08/24 04:47:10;;;;;;;4.55;3.70;;;14.30;99.50;;;;;;5072518;28;20214;-66
2022/08/24 04:49:39;;;;;;;5.05;3.60;;;14.10;99.60;;;;;;5074410;28;20202;-65
2022/08/24 04:52:08;;;;;;;5.28;3.80;;;14.10;99.70;;;;;;5072366;28;20317;-66
2022/08/24 04:54:37;;;;;;;6.57;4.00;;;14.10;99.80;;;;;;5074498;28;20211;-65
2022/08/24 04:57:10;;;;;;;4.28;3.53;;;14.10;99.90;;;;;;5073581;28;20203;-66
2022/08/24 04:59:48;;;;;;;5.00;3.90;;;14.10;99.90;;;;;;5057252;28;20199;-65
2022/08/24 05:02:17;;;;;;;3.97;3.58;;;14.10;99.90;;;;;;5054432;28;20230;-66
2022/08/24 05:04:49;;;;;;;6.15;4.18;;;14.00;99.90;;;;;;5054505;28;20183;-65
2022/08/24 05:07:18;;;;;;;4.95;4.05;;;14.00;99.90;;;;;;5061480;28;20195;-64
2022/08/24 05:09:47;;;;;;;5.78;3.70;;;14.00;99.90;;;;;;5074030;28;20203;-64
2022/08/24 05:12:20;;;;;;;5.80;3.80;;;14.00;99.90;;;;;;5074170;28;20223;-66
2022/08/24 05:14:58;;;;;;;5.35;4.10;;;14.00;99.90;;;;;;5064834;28;20588;-65
2022/08/24 05:17:28;;;;;;;5.60;4.43;;;14.10;99.90;;;;;;5074113;28;20211;-65
2022/08/24 05:19:57;;;;;;;4.88;3.97;;;14.20;99.90;;;;;;5074187;28;20198;-65
2022/08/24 05:22:26;;;;;;;5.88;4.18;;;14.20;99.90;;;;;;5071809;28;20191;-64
2022/08/24 05:24:55;;;;;;;5.38;4.53;;;14.20;99.90;;;;;;5074127;28;20199;-65
2022/08/24 05:27:24;;;;;;;7.25;4.10;;;14.20;99.90;;;;;;5072415;28;20214;-64
2022/08/24 05:29:54;;;;;;;9.00;4.40;;;14.20;99.90;;;;;;5070354;28;20205;-64
2022/08/24 05:32:25;;;;;;;5.93;4.32;;;14.30;99.90;;;;;;5073984;28;20534;-66
2022/08/24 05:34:54;;;;;;;4.93;4.20;;;14.30;99.90;;;;;;5060038;28;20199;-65
2022/08/24 05:37:25;;;;;;;5.70;4.75;;;14.40;99.90;;;;;;5053955;28;20183;-65
2022/08/24 05:40:10;;;;;;;6.55;4.68;;;14.40;99.90;;;;;;5053409;28;20525;-65
2022/08/24 05:42:41;;;;;;;7.47;4.85;;;14.40;99.90;;;;;;5068058;28;20209;-66
2022/08/24 05:45:11;;;;;;;6.07;4.68;;;14.50;99.90;;;;;;5072964;28;20210;-66
2022/08/24 05:47:41;;;;;;;5.03;4.45;;;14.50;99.90;;;;;;5073649;28;20203;-66
2022/08/24 05:50:32;;;;;;;6.07;4.70;;;14.60;99.90;;;;;;5056834;28;20214;-64
2022/08/24 05:53:01;;;;;;;8.50;5.18;;;14.60;99.90;;;;;;5070596;28;20218;-66
2022/08/24 05:55:30;;;;;;;9.43;4.95;;;14.70;99.90;;;;;;5069035;28;20533;-64
2022/08/24 05:57:59;;;;;;;6.63;5.28;;;14.70;99.90;;;;;;5073294;28;20213;-64
2022/08/24 06:00:30;;;;;;;6.38;5.32;;;14.80;99.90;;;;;;5073379;28;20211;-65
2022/08/24 06:03:00;;;;;;;9.00;6.57;;;14.80;99.90;;;;;;5073415;28;20187;-65
2022/08/24 06:05:29;;;;;;;6.57;5.70;;;14.90;99.90;;;;;;5072035;28;20191;-65
2022/08/24 06:07:59;;;;;;;7.00;5.90;;;15.00;99.90;;;;;;5061884;28;20203;-65
2022/08/24 06:10:29;;;;;;;7.07;6.03;;;15.00;99.90;;;;;;5056122;28;20223;-64
2022/08/24 06:13:05;;;;;;;6.45;5.75;;;15.10;99.90;;;;;;5054601;28;20581;-64
2022/08/24 06:15:35;;;;;;;8.07;5.85;;;15.20;99.90;;;;;;5053078;28;20196;-64
2022/08/24 06:18:06;;;;;;;8.32;6.28;;;15.30;99.90;;;;;;5053210;28;20184;-64
2022/08/24 06:20:40;;;;;;;7.30;6.57;;;15.40;99.90;;;;;;5071810;28;20223;-65
2022/08/24 06:23:09;;;;;;;9.27;6.28;;;15.50;99.90;;;;;;5074251;28;20198;-65
2022/08/24 06:28:32;;;;;;;9.20;7.47;;;15.60;99.90;;;;;;5070854;28;20187;-65
2022/08/24 06:31:03;;;;;;;8.77;7.20;;;15.60;99.90;;;;;;5073927;28;20235;-65
2022/08/24 06:33:33;;;;;;;9.90;7.20;;;15.70;99.90;;;;;;5072781;28;20207;-65
2022/08/24 06:36:02;;;;;;;8.55;7.10;;;15.70;99.90;;;;;;5067987;28;20195;-65
2022/08/24 06:38:32;;;;;;;8.27;7.47;;;15.80;99.90;;;;;;5073832;28;20202;-66
2022/08/24 06:41:05;;;;;;;9.93;8.07;;;16.00;99.90;;;;;;5071070;28;20225;-65
2022/08/24 06:43:34;;;;;;;8.70;6.72;;;16.20;99.90;;;;;;5071065;28;20645;-64
2022/08/24 06:46:10;;;;;;;9.25;7.68;;;16.20;99.90;;;;;;5072595;28;20187;-65
2022/08/24 06:48:44;;;;;;;8.93;7.10;;;16.40;99.90;;;;;;5072549;28;20186;-65
2022/08/24 06:51:15;;;;;;;10.45;7.05;;;16.40;99.90;;;;;;5071743;28;20218;-65
2022/08/24 06:53:45;;;;;;;9.85;8.02;;;16.60;99.90;;;;;;5070373;28;20720;-65
2022/08/24 06:56:15;;;;;;;10.60;7.95;;;16.70;99.90;;;;;;5070157;28;20200;-66
2022/08/24 06:58:44;;;;;;;9.35;8.07;;;16.80;99.90;;;;;;5072310;28;20195;-65
2022/08/24 07:01:19;;;;;;;9.32;7.57;;;16.90;99.90;;;;;;5072274;28;20219;-65
2022/08/24 07:03:50;;;;;;;10.05;6.82;;;17.00;99.90;;;;;;5054607;28;20666;-66
2022/08/24 07:06:41;;;;;;;10.38;7.63;;;17.10;99.90;;;;;;5052912;28;20195;-65
2022/08/24 07:09:11;;;;;;;9.85;8.23;;;17.20;99.90;;;;;;5072592;28;20203;-65
2022/08/24 07:11:40;;;;;;;9.75;8.50;;;17.30;99.90;;;;;;5068946;28;20219;-65
2022/08/24 07:14:09;;;;;;;10.80;8.18;;;17.40;99.90;;;;;;5072958;28;20215;-65
2022/08/24 07:16:37;;;;;;;8.95;7.65;;;17.50;99.90;;;;;;5071246;28;21082;-64
2022/08/24 07:19:08;;;;;;;9.82;7.35;;;17.60;99.90;;;;;;5071952;28;20214;-65
2022/08/24 07:21:37;;;;;;;9.95;8.07;;;17.80;99.90;;;;;;5069560;28;20709;-65
2022/08/24 07:24:06;;;;;;;9.43;8.23;;;17.90;99.90;;;;;;5071836;28;20210;-66
2022/08/24 07:26:39;;;;;;;8.75;7.85;;;18.10;99.90;;;;;;5070490;28;20196;-65
2022/08/24 07:29:10;;;;;;;9.50;8.20;;;18.30;99.90;;;;;;5071797;28;20199;-64
2022/08/24 07:32:00;;;;;;;9.68;7.60;;;18.30;99.90;;;;;;5070469;28;20215;-64
2022/08/24 07:34:37;;;;;;;9.57;7.38;;;18.50;99.90;;;;;;5071688;28;20203;-65
2022/08/24 07:37:08;;;;;;;9.27;7.60;;;18.60;99.90;;;;;;5071925;28;21069;-65
2022/08/24 07:39:40;;;;;;;9.98;8.13;;;18.70;99.90;;;;;;5071714;28;20633;-64
2022/08/24 07:42:09;;;;;;;9.85;7.50;;;18.90;99.90;;;;;;5067827;28;20681;-66
2022/08/24 07:44:45;;;;;;;8.23;6.68;;;19.20;99.90;;;;;;5066658;28;20206;-65
2022/08/24 07:47:14;;;;;;;10.27;7.32;;;19.30;99.90;;;;;;5070684;28;20234;-65
2022/08/24 07:50:08;;;;;;;12.18;7.55;;;19.40;99.90;;;;;;5071575;28;20183;-65
2022/08/24 07:52:38;;;;;;;7.93;6.82;;;19.60;99.90;;;;;;5071475;28;20199;-66
2022/08/24 07:55:08;;;;;;;7.60;6.47;;;19.80;99.90;;;;;;5069267;28;20219;-65
2022/08/24 07:57:38;;;;;;;8.20;6.18;;;20.00;99.90;;;;;;5064426;28;20196;-64
2022/08/24 08:00:10;;;;;;;8.93;5.70;;;20.30;99.90;;;;;;5051876;28;20199;-64
2022/08/24 08:02:45;;;;;;;8.63;5.10;;;20.50;99.90;;;;;;5052287;28;20187;-64
2022/08/24 08:05:20;;;;;;;8.18;4.97;;;20.60;99.90;;;;;;5051535;28;20199;-67
2022/08/24 08:07:52;;;;;;;8.25;4.82;;;20.80;99.90;;;;;;5067729;28;20195;-66
2022/08/24 08:10:22;;;;;;;6.15;4.70;;;21.10;99.90;;;;;;5054556;28;20227;-65
2022/08/24 08:12:52;;;;;;;5.43;4.93;;;21.50;99.90;;;;;;5066594;28;20191;-65
2022/08/24 08:15:21;;;;;;;7.70;4.57;;;21.70;99.60;;;;;;5072199;28;20563;-65
2022/08/24 08:17:58;;;;;;;4.93;4.38;;;22.00;99.10;;;;;;5066514;28;20220;-65
2022/08/24 08:20:28;;;;;;;7.38;4.38;;;22.00;99.20;;;;;;5062389;28;20219;-65
2022/08/24 08:26:06;;;;;;;5.20;4.20;;;22.00;98.90;;;;;;5054342;28;20658;-65
2022/08/24 08:28:49;;;;;;;7.82;5.25;;;22.40;97.60;;;;;;5060297;28;20564;-69
2022/08/24 08:31:18;;;;;;;7.38;5.00;;;22.60;97.60;;;;;;5067622;28;20286;-67
2022/08/24 08:33:48;;;;;;;7.25;4.85;;;22.50;97.70;;;;;;5050970;28;20203;-65
2022/08/24 08:36:21;;;;;;;6.45;4.38;;;22.50;97.20;;;;;;5068669;28;20230;-65
2022/08/24 08:38:51;;;;;;;4.70;4.22;;;22.50;97.70;;;;;;5070958;28;20660;-66
2022/08/24 08:41:52;;;;;;;3.65;3.33;;;22.50;97.40;;;;;;5063558;28;20224;-65
2022/08/24 08:44:38;;;;;;;4.88;3.42;;;22.60;95.90;;;;;;5070977;28;20190;-65
2022/08/24 08:47:21;;;;;;;5.22;3.33;;;23.10;94.90;;;;;;5070900;28;20198;-66
2022/08/24 08:50:07;;;;;;;5.28;3.30;;;23.30;93.80;;;;;;5070842;28;20191;-65
2022/08/24 08:53:14;;;;;;;3.60;2.80;;;23.60;93.70;;;;;;5068579;28;20203;-65
2022/08/24 08:55:48;;;;;;;3.20;2.90;;;23.90;93.10;;;;;;5026741;28;20231;-66
2022/08/24 08:58:39;;;;;;;3.40;3.10;;;23.90;92.50;;;;;;5067852;28;20195;-66
2022/08/24 09:01:22;;;;;;;3.10;2.80;;;23.90;92.30;;;;;;5069520;28;20221;-65
2022/08/24 09:04:10;;;;;;;3.40;2.80;;;24.10;92.60;;;;;;5066043;28;20195;-65
2022/08/24 09:07:10;;;;;;;3.10;2.80;;;24.20;91.80;;;;;;5068350;28;20570;-66
2022/08/24 09:10:02;;;;;;;5.22;2.95;;;24.20;91.60;;;;;;5034179;28;20200;-65
2022/08/24 09:12:51;;;;;;;4.93;3.00;;;24.20;91.40;;;;;;5051065;28;20195;-66
2022/08/24 09:15:43;;;;;;;3.78;2.95;;;24.50;90.60;;;;;;5052997;28;20223;-65
2022/08/24 09:18:30;;;;;;;3.45;2.90;;;24.40;90.80;;;;;;5054213;28;20179;-65
2022/08/24 09:21:25;;;;;;;3.22;2.63;;;24.40;91.20;;;;;;5055302;28;20720;-65
2022/08/24 09:24:03;;;;;;;6.30;3.22;;;24.50;90.20;;;;;;5055894;28;20195;-64
2022/08/24 09:26:47;;;;;;;3.03;2.72;;;25.10;88.10;;;;;;5070563;28;20606;-65
2022/08/24 09:29:22;;;;;;;3.10;2.80;;;25.50;86.70;;;;;;5054186;28;20195;-64
2022/08/24 09:32:03;;;;;;;2.85;2.63;;;25.70;86.00;;;;;;5055137;28;20220;-66
2022/08/24 09:34:36;;;;;;;4.75;3.00;;;25.80;86.30;;;;;;5069849;28;20191;-66
2022/08/24 09:37:25;;;;;;;3.35;2.35;;;25.50;87.00;;;;;;5071137;28;20222;-66
2022/08/24 09:40:04;;;;;;;3.58;2.80;;;25.60;85.00;;;;;;5075076;28;20191;-66
2022/08/24 09:43:06;;;;;;;3.67;3.03;;;25.60;85.40;;;;;;5072661;28;20888;-65
2022/08/24 09:46:19;;;;;;;3.33;2.60;;;25.70;86.80;;;;;;5075099;28;20191;-65
2022/08/24 09:49:26;;;;;;;4.80;2.92;;;26.00;82.60;;;;;;5072504;28;20242;-66
2022/08/24 09:52:31;;;;;;;3.95;2.90;;;26.50;79.90;;;;;;5070859;28;20246;-67
2022/08/24 09:55:32;;;;;;;3.45;2.90;;;26.50;80.60;;;;;;5074759;28;20551;-67
2022/08/24 09:58:15;;;;;;;3.65;3.13;;;26.20;82.40;;;;;;5074703;28;20563;-65
2022/08/24 10:00:46;;;;;;;5.45;3.20;;;26.50;81.10;;;;;;5074534;28;20207;-66
2022/08/24 10:03:28;;;;;;;4.63;3.30;;;26.80;80.00;;;;;;5071499;28;20676;-66
2022/08/24 10:06:16;;;;;;;3.92;2.80;;;27.00;79.50;;;;;;5074545;28;20226;-67
2022/08/24 10:09:00;;;;;;;3.45;3.10;;;26.90;80.40;;;;;;5070102;28;20199;-66
2022/08/24 10:11:38;;;;;;;3.97;2.90;;;26.60;80.00;;;;;;5067718;28;20982;-66
2022/08/24 10:14:15;;;;;;;4.15;2.92;;;26.90;78.60;;;;;;5072171;28;20194;-66
2022/08/24 10:16:54;;;;;;;3.22;2.70;;;26.80;79.70;;;;;;5070588;28;20231;-67
2022/08/24 10:19:45;;;;;;;2.60;2.40;;;27.20;77.50;;;;;;5054251;28;20191;-64
2022/08/24 10:22:24;;;;;;;3.03;2.50;;;27.60;77.00;;;;;;5054935;28;20227;-66
2022/08/24 10:25:05;;;;;;;3.42;2.60;;;27.50;76.70;;;;;;5058630;28;20196;-67
2022/08/24 10:27:45;;;;;;;4.13;2.35;;;27.40;76.80;;;;;;5058954;28;20206;-66
2022/08/24 10:30:41;;;;;;;2.60;2.40;;;27.20;76.60;;;;;;5072251;28;20589;-66
2022/08/24 10:33:19;;;;;;;2.78;2.40;;;27.00;77.40;;;;;;5054002;28;20188;-65
2022/08/24 10:36:30;;;;;;;2.33;2.03;;;27.30;77.20;;;;;;5071027;28;20217;-67
2022/08/24 10:39:44;;;;;;;3.63;2.33;;;27.30;77.50;;;;;;5071585;28;20199;-65
2022/08/24 10:46:00;;;;;;;2.50;2.20;;;27.30;77.70;;;;;;5073792;28;20558;-67
2022/08/24 10:49:09;;;;;;;3.45;2.35;;;27.20;78.00;;;;;;5071812;28;20198;-67
2022/08/24 10:51:50;;;;;;;2.83;2.42;;;27.30;78.40;;;;;;5046408;28;20230;-67
2022/08/24 10:54:20;;;;;;;4.35;2.95;;;27.20;77.00;;;;;;5071639;28;20207;-66
2022/08/24 10:57:00;;;;;;;3.45;2.42;;;27.20;76.90;;;;;;5073526;28;20230;-67
2022/08/24 10:59:34;;;;;;;2.70;2.22;;;27.30;76.40;;;;;;5073609;28;20186;-67
2022/08/24 11:02:08;;;;;;;4.93;2.63;;;27.20;76.80;;;;;;5071691;28;20697;-66
2022/08/24 11:04:42;;;;;;;3.72;2.40;;;27.40;76.50;;;;;;5073381;28;20544;-67
2022/08/24 11:07:18;;;;;;;2.53;2.33;;;27.80;75.30;;;;;;5070961;28;20199;-67
2022/08/24 11:09:52;;;;;;;2.42;2.22;;;27.60;75.90;;;;;;5071733;28;20207;-67
2022/08/24 11:12:28;;;;;;;3.03;2.58;;;27.50;76.60;;;;;;5073143;28;20215;-64
2022/08/24 11:15:00;;;;;;;4.32;2.50;;;27.70;78.00;;;;;;5073209;28;20195;-66
2022/08/24 11:17:31;;;;;;;3.17;2.47;;;27.70;76.10;;;;;;5070877;28;20222;-66
2022/08/24 11:20:00;;;;;;;2.70;2.45;;;27.70;76.00;;;;;;5062191;28;20218;-65
2022/08/24 11:22:39;;;;;;;2.85;2.42;;;27.70;76.10;;;;;;5066641;28;20286;-66
2022/08/24 11:25:16;;;;;;;3.03;2.60;;;27.60;75.50;;;;;;5073091;28;20183;-66
2022/08/24 11:27:48;;;;;;;2.80;2.60;;;27.50;77.00;;;;;;5070693;28;20213;-66
2022/08/24 11:30:25;;;;;;;4.38;2.78;;;27.70;76.50;;;;;;5072892;28;20222;-66
2022/08/24 11:32:56;;;;;;;2.67;2.17;;;27.90;75.60;;;;;;5072896;28;20652;-66
2022/08/24 11:35:28;;;;;;;2.75;2.25;;;27.70;76.00;;;;;;5070576;28;20202;-68
2022/08/24 11:38:08;;;;;;;4.30;2.80;;;27.50;75.60;;;;;;5066120;28;20329;-66
2022/08/24 11:40:41;;;;;;;2.65;2.35;;;27.90;74.20;;;;;;5064611;28;20226;-66
2022/08/24 11:43:20;;;;;;;2.50;2.30;;;27.70;75.00;;;;;;5072732;28;20187;-66
2022/08/24 11:46:02;;;;;;;2.97;2.60;;;27.70;75.20;;;;;;5072682;28;20198;-67
2022/08/24 11:48:41;;;;;;;2.75;2.35;;;27.60;75.40;;;;;;5072615;28;20646;-66
2022/08/24 11:51:17;;;;;;;2.55;2.22;;;28.30;73.60;;;;;;5070773;28;20222;-66
2022/08/24 11:53:58;;;;;;;3.35;2.47;;;28.20;74.10;;;;;;5069197;28;20199;-67
2022/08/24 11:56:33;;;;;;;3.83;2.80;;;28.20;74.10;;;;;;5070283;28;20187;-65
2022/08/24 11:59:10;;;;;;;3.17;2.70;;;28.00;74.00;;;;;;5061922;28;20202;-66
2022/08/24 12:01:47;;;;;;;3.47;2.83;;;28.10;73.60;;;;;;5067582;28;20215;-64
2022/08/24 12:04:44;;;;;;;3.60;2.50;;;27.90;74.50;;;;;;5071247;28;20199;-66
2022/08/24 12:07:24;;;;;;;2.88;2.58;;;27.70;74.30;;;;;;5051955;28;20211;-66
2022/08/24 12:10:11;;;;;;;3.10;2.80;;;27.70;74.40;;;;;;5057965;28;20191;-66
2022/08/24 12:12:48;;;;;;;2.90;2.38;;;28.10;73.80;;;;;;5066254;28;20210;-65
2022/08/24 12:15:24;;;;;;;4.32;2.80;;;28.20;73.40;;;;;;5072530;28;20187;-66
2022/08/24 12:18:00;;;;;;;2.60;2.40;;;28.00;75.00;;;;;;5072180;28;20566;-66
2022/08/24 12:20:33;;;;;;;4.05;2.40;;;28.00;74.50;;;;;;5072371;28;20673;-67
2022/08/24 12:23:05;;;;;;;2.65;2.45;;;28.10;73.80;;;;;;5068947;28;20207;-66
2022/08/24 12:28:29;;;;;;;3.03;2.30;;;28.10;73.70;;;;;;5072368;28;20565;-67
2022/08/24 12:31:03;;;;;;;2.97;2.60;;;28.00;74.30;;;;;;5071360;28;20215;-67
2022/08/24 12:33:35;;;;;;;2.65;2.45;;;28.00;73.90;;;;;;5067949;28;20199;-67
2022/08/24 12:36:15;;;;;;;3.40;2.83;;;28.10;73.20;;;;;;5071061;28;20203;-65
2022/08/24 12:38:50;;;;;;;2.80;2.40;;;28.30;72.90;;;;;;5067768;28;20293;-66
2022/08/24 12:41:27;;;;;;;2.90;2.60;;;28.10;73.80;;;;;;5069652;28;20214;-66
2022/08/24 12:44:01;;;;;;;3.08;2.50;;;28.10;73.60;;;;;;5070593;28;20203;-67
2022/08/24 12:46:30;;;;;;;2.97;2.65;;;28.20;72.80;;;;;;5072158;28;20219;-66
2022/08/24 12:49:04;;;;;;;2.58;2.38;;;28.30;71.40;;;;;;5068515;28;20203;-68
2022/08/24 12:51:50;;;;;;;3.20;2.45;;;28.30;71.90;;;;;;5069783;28;20608;-64
2022/08/24 12:54:43;;;;;;;3.22;2.80;;;28.00;73.60;;;;;;5055909;28;20184;-67
2022/08/24 12:57:21;;;;;;;6.03;2.90;;;27.60;74.00;;;;;;5055774;28;20180;-66
2022/08/24 12:59:56;;;;;;;4.57;2.70;;;27.40;74.40;;;;;;5060551;28;20226;-66
2022/08/24 13:02:31;;;;;;;4.35;2.88;;;27.60;74.00;;;;;;5072074;28;20650;-67
2022/08/24 13:05:10;;;;;;;4.60;3.10;;;28.00;73.30;;;;;;5075845;28;20209;-67
2022/08/24 13:07:46;;;;;;;4.93;3.05;;;28.40;72.60;;;;;;5073351;28;20218;-66
2022/08/24 13:10:37;;;;;;;8.57;3.00;;;28.80;71.60;;;;;;5069600;28;20199;-66
2022/08/24 13:13:20;;;;;;;6.20;2.92;;;28.90;71.10;;;;;;5070076;28;20200;-66
2022/08/24 13:15:58;;;;;;;4.05;2.78;;;29.10;70.80;;;;;;5071596;28;20646;-67
2022/08/24 13:18:52;;;;;;;4.88;3.13;;;29.40;70.20;;;;;;5075468;28;20245;-65
2022/08/24 13:21:50;;;;;;;3.72;3.10;;;29.50;70.20;;;;;;5066467;28;20218;-64
2022/08/24 13:25:19;;;;;;;5.95;3.00;;;29.50;70.60;;;;;;5055373;28;20191;-67
2022/08/24 13:28:06;;;;;;;3.20;2.67;;;29.70;70.50;;;;;;5055580;28;20214;-67
2022/08/24 13:30:57;;;;;;;4.50;3.30;;;29.80;69.40;;;;;;5055215;28;20215;-66
2022/08/24 13:33:31;;;;;;;3.90;2.83;;;29.70;69.20;;;;;;5073472;28;20188;-67
2022/08/24 13:36:06;;;;;;;3.60;3.22;;;29.50;69.90;;;;;;5068327;28;20693;-66
2022/08/24 13:38:58;;;;;;;3.88;2.88;;;29.20;69.10;;;;;;5054952;28;20222;-67
2022/08/24 13:41:54;;;;;;;4.55;2.92;;;28.90;69.70;;;;;;5054939;28;20555;-67
2022/08/24 13:44:31;;;;;;;5.47;3.22;;;28.70;72.70;;;;;;5055011;28;20191;-67